sensor_id;sensor_type;location;lat;lon;timestamp;temperature;humidity
15298;DHT22;7750;48.796;9.026;2024-02-26T00:01:31;11.20;54.70
15298;DHT22;7750;48.796;9.026;2024-02-26T00:06:33;11.20;54.90
15298;DHT22;7750;48.796;9.026;2024-02-26T00:11:36;11.20;55.50
15298;DHT22;7750;48.796;9.026;2024-02-26T00:16:40;11.30;54.90
15298;DHT22;7750;48.796;9.026;2024-02-26T00:21:41;11.30;54.70
15298;DHT22;7750;48.796;9.026;2024-02-26T00:26:42;11.40;54.50
15298;DHT22;7750;48.796;9.026;2024-02-26T00:31:43;11.40;54.60
15298;DHT22;7750;48.796;9.026;2024-02-26T00:36:43;11.50;54.50
15298;DHT22;7750;48.796;9.026;2024-02-26T00:41:44;11.50;54.50
15298;DHT22;7750;48.796;9.026;2024-02-26T00:46:45;11.60;54.20
15298;DHT22;7750;48.796;9.026;2024-02-26T00:51:45;11.60;54.40
15298;DHT22;7750;48.796;9.026;2024-02-26T00:56:46;11.70;53.70
15298;DHT22;7750;48.796;9.026;2024-02-26T01:01:46;11.70;53.50
15298;DHT22;7750;48.796;9.026;2024-02-26T01:06:47;11.80;53.20
15298;DHT22;7750;48.796;9.026;2024-02-26T01:11:48;11.80;52.90
15298;DHT22;7750;48.796;9.026;2024-02-26T01:16:48;11.80;52.50
15298;DHT22;7750;48.796;9.026;2024-02-26T01:21:49;11.90;52.80
15298;DHT22;7750;48.796;9.026;2024-02-26T01:26:50;11.90;52.50
15298;DHT22;7750;48.796;9.026;2024-02-26T01:31:50;11.90;52.50
15298;DHT22;7750;48.796;9.026;2024-02-26T01:36:51;12.00;52.90
15298;DHT22;7750;48.796;9.026;2024-02-26T01:41:51;11.90;53.10
15298;DHT22;7750;48.796;9.026;2024-02-26T01:46:52;11.90;53.60
15298;DHT22;7750;48.796;9.026;2024-02-26T01:51:53;11.80;53.70
15298;DHT22;7750;48.796;9.026;2024-02-26T01:56:55;11.80;54.00
15298;DHT22;7750;48.796;9.026;2024-02-26T02:01:58;11.70;54.90
15298;DHT22;7750;48.796;9.026;2024-02-26T02:07:00;11.70;55.00
15298;DHT22;7750;48.796;9.026;2024-02-26T02:12:01;11.60;55.00
15298;DHT22;7750;48.796;9.026;2024-02-26T02:17:02;11.50;55.50
15298;DHT22;7750;48.796;9.026;2024-02-26T02:22:02;11.40;55.30
15298;DHT22;7750;48.796;9.026;2024-02-26T02:27:03;11.40;55.30
15298;DHT22;7750;48.796;9.026;2024-02-26T02:32:04;11.40;55.10
15298;DHT22;7750;48.796;9.026;2024-02-26T02:37:05;11.40;55.20
15298;DHT22;7750;48.796;9.026;2024-02-26T02:42:05;11.40;55.70
15298;DHT22;7750;48.796;9.026;2024-02-26T02:47:06;11.40;56.30
15298;DHT22;7750;48.796;9.026;2024-02-26T02:52:07;11.40;56.60
15298;DHT22;7750;48.796;9.026;2024-02-26T02:57:08;11.40;57.00
15298;DHT22;7750;48.796;9.026;2024-02-26T03:02:09;11.40;57.00
15298;DHT22;7750;48.796;9.026;2024-02-26T03:07:09;11.40;57.60
15298;DHT22;7750;48.796;9.026;2024-02-26T03:12:10;11.40;57.20
15298;DHT22;7750;48.796;9.026;2024-02-26T03:17:11;11.40;57.30
15298;DHT22;7750;48.796;9.026;2024-02-26T03:22:12;11.40;57.80
15298;DHT22;7750;48.796;9.026;2024-02-26T03:27:13;11.50;58.50
15298;DHT22;7750;48.796;9.026;2024-02-26T03:32:13;11.50;57.60
15298;DHT22;7750;48.796;9.026;2024-02-26T03:37:14;11.50;57.60
15298;DHT22;7750;48.796;9.026;2024-02-26T03:42:15;11.50;57.60
15298;DHT22;7750;48.796;9.026;2024-02-26T03:47:16;11.50;57.50
15298;DHT22;7750;48.796;9.026;2024-02-26T03:52:17;11.60;57.50
15298;DHT22;7750;48.796;9.026;2024-02-26T03:57:18;11.60;57.70
15298;DHT22;7750;48.796;9.026;2024-02-26T04:02:18;11.70;57.90
15298;DHT22;7750;48.796;9.026;2024-02-26T04:07:23;11.70;57.60
15298;DHT22;7750;48.796;9.026;2024-02-26T04:12:23;11.70;57.30
15298;DHT22;7750;48.796;9.026;2024-02-26T04:17:24;11.70;57.20
15298;DHT22;7750;48.796;9.026;2024-02-26T04:22:25;11.80;57.20
15298;DHT22;7750;48.796;9.026;2024-02-26T04:27:25;11.80;57.70
15298;DHT22;7750;48.796;9.026;2024-02-26T04:32:26;11.80;57.80
15298;DHT22;7750;48.796;9.026;2024-02-26T04:37:28;11.80;57.80
15298;DHT22;7750;48.796;9.026;2024-02-26T04:42:31;11.80;57.80
15298;DHT22;7750;48.796;9.026;2024-02-26T04:47:31;11.80;57.80
15298;DHT22;7750;48.796;9.026;2024-02-26T04:52:32;11.80;57.70
15298;DHT22;7750;48.796;9.026;2024-02-26T04:57:33;11.80;57.80
15298;DHT22;7750;48.796;9.026;2024-02-26T05:02:34;11.80;57.80
15298;DHT22;7750;48.796;9.026;2024-02-26T05:07:42;11.70;57.80
15298;DHT22;7750;48.796;9.026;2024-02-26T05:12:43;11.70;57.90
15298;DHT22;7750;48.796;9.026;2024-02-26T05:17:44;11.70;57.60
15298;DHT22;7750;48.796;9.026;2024-02-26T05:22:45;11.70;57.90
15298;DHT22;7750;48.796;9.026;2024-02-26T05:27:46;11.70;57.60
15298;DHT22;7750;48.796;9.026;2024-02-26T05:32:46;11.70;57.50
15298;DHT22;7750;48.796;9.026;2024-02-26T05:37:47;11.70;57.60
15298;DHT22;7750;48.796;9.026;2024-02-26T05:42:48;11.70;57.30
15298;DHT22;7750;48.796;9.026;2024-02-26T05:47:49;11.60;57.20
15298;DHT22;7750;48.796;9.026;2024-02-26T05:52:50;11.60;57.40
15298;DHT22;7750;48.796;9.026;2024-02-26T05:57:50;11.60;57.70
15298;DHT22;7750;48.796;9.026;2024-02-26T06:02:51;11.60;58.00
15298;DHT22;7750;48.796;9.026;2024-02-26T06:07:52;11.60;59.00
15298;DHT22;7750;48.796;9.026;2024-02-26T06:12:52;11.60;58.70
15298;DHT22;7750;48.796;9.026;2024-02-26T06:17:53;11.60;59.00
15298;DHT22;7750;48.796;9.026;2024-02-26T06:22:54;11.50;59.10
15298;DHT22;7750;48.796;9.026;2024-02-26T06:27:54;11.50;59.10
15298;DHT22;7750;48.796;9.026;2024-02-26T06:32:55;11.40;59.40
15298;DHT22;7750;48.796;9.026;2024-02-26T06:37:56;11.40;59.50
15298;DHT22;7750;48.796;9.026;2024-02-26T06:42:56;11.30;59.60
15298;DHT22;7750;48.796;9.026;2024-02-26T06:47:57;11.30;59.80
15298;DHT22;7750;48.796;9.026;2024-02-26T06:52:58;11.20;59.90
15298;DHT22;7750;48.796;9.026;2024-02-26T06:57:58;11.20;60.00
15298;DHT22;7750;48.796;9.026;2024-02-26T07:02:59;11.10;60.00
15298;DHT22;7750;48.796;9.026;2024-02-26T07:08:00;11.10;60.40
15298;DHT22;7750;48.796;9.026;2024-02-26T07:13:01;11.10;60.30
15298;DHT22;7750;48.796;9.026;2024-02-26T07:18:01;11.10;60.50
15298;DHT22;7750;48.796;9.026;2024-02-26T07:23:04;11.20;61.00
15298;DHT22;7750;48.796;9.026;2024-02-26T07:28:05;11.20;61.10
15298;DHT22;7750;48.796;9.026;2024-02-26T07:33:06;11.20;61.50
15298;DHT22;7750;48.796;9.026;2024-02-26T07:38:07;11.20;61.30
15298;DHT22;7750;48.796;9.026;2024-02-26T07:43:08;11.20;61.30
15298;DHT22;7750;48.796;9.026;2024-02-26T07:48:09;11.30;61.50
15298;DHT22;7750;48.796;9.026;2024-02-26T07:53:09;11.30;61.60
15298;DHT22;7750;48.796;9.026;2024-02-26T07:58:10;11.40;61.60
15298;DHT22;7750;48.796;9.026;2024-02-26T08:03:11;11.50;61.60
15298;DHT22;7750;48.796;9.026;2024-02-26T08:08:11;11.50;61.50
15298;DHT22;7750;48.796;9.026;2024-02-26T08:13:12;11.60;61.30
15298;DHT22;7750;48.796;9.026;2024-02-26T08:18:13;11.70;61.40
15298;DHT22;7750;48.796;9.026;2024-02-26T08:23:13;11.80;62.50
15298;DHT22;7750;48.796;9.026;2024-02-26T08:28:14;11.80;62.00
15298;DHT22;7750;48.796;9.026;2024-02-26T08:33:14;12.00;62.30
15298;DHT22;7750;48.796;9.026;2024-02-26T08:38:15;12.10;62.40
15298;DHT22;7750;48.796;9.026;2024-02-26T08:43:16;12.20;62.30
15298;DHT22;7750;48.796;9.026;2024-02-26T08:48:16;12.30;62.40
15298;DHT22;7750;48.796;9.026;2024-02-26T08:53:17;12.40;62.30
15298;DHT22;7750;48.796;9.026;2024-02-26T08:58:18;12.40;62.00
15298;DHT22;7750;48.796;9.026;2024-02-26T09:03:19;12.50;62.00
15298;DHT22;7750;48.796;9.026;2024-02-26T09:23:46;12.70;62.00
15298;DHT22;7750;48.796;9.026;2024-02-26T09:28:48;12.70;62.10
15298;DHT22;7750;48.796;9.026;2024-02-26T09:33:49;12.80;62.10
15298;DHT22;7750;48.796;9.026;2024-02-26T09:38:50;12.80;61.90
15298;DHT22;7750;48.796;9.026;2024-02-26T09:43:55;12.90;61.50
15298;DHT22;7750;48.796;9.026;2024-02-26T09:48:57;13.00;61.20
15298;DHT22;7750;48.796;9.026;2024-02-26T09:54:01;13.10;61.00
15298;DHT22;7750;48.796;9.026;2024-02-26T10:25:24;14.00;61.00
15298;DHT22;7750;48.796;9.026;2024-02-26T10:30:47;14.20;60.60
15298;DHT22;7750;48.796;9.026;2024-02-26T10:51:39;14.60;59.70
15298;DHT22;7750;48.796;9.026;2024-02-26T11:01:51;14.80;59.50
15298;DHT22;7750;48.796;9.026;2024-02-26T11:32:48;16.00;57.70
15298;DHT22;7750;48.796;9.026;2024-02-26T11:37:56;16.10;57.90
15298;DHT22;7750;48.796;9.026;2024-02-26T12:03:43;16.90;56.80
15298;DHT22;7750;48.796;9.026;2024-02-26T12:08:45;17.20;56.00
15298;DHT22;7750;48.796;9.026;2024-02-26T12:13:47;17.30;55.80
15298;DHT22;7750;48.796;9.026;2024-02-26T12:18:51;17.40;55.00
15298;DHT22;7750;48.796;9.026;2024-02-26T12:23:52;17.40;55.00
15298;DHT22;7750;48.796;9.026;2024-02-26T12:28:54;17.40;55.00
15298;DHT22;7750;48.796;9.026;2024-02-26T12:33:55;17.40;54.60
15298;DHT22;7750;48.796;9.026;2024-02-26T12:38:58;17.40;53.90
15298;DHT22;7750;48.796;9.026;2024-02-26T12:44:01;17.40;54.10
15298;DHT22;7750;48.796;9.026;2024-02-26T12:49:01;17.40;54.10
15298;DHT22;7750;48.796;9.026;2024-02-26T12:54:02;17.40;52.70
15298;DHT22;7750;48.796;9.026;2024-02-26T12:59:03;17.40;52.90
15298;DHT22;7750;48.796;9.026;2024-02-26T13:04:17;17.30;53.10
15298;DHT22;7750;48.796;9.026;2024-02-26T14:00:54;18.60;52.50
15298;DHT22;7750;48.796;9.026;2024-02-26T14:05:55;19.00;49.60
15298;DHT22;7750;48.796;9.026;2024-02-26T14:16:08;18.70;51.20
15298;DHT22;7750;48.796;9.026;2024-02-26T14:41:42;19.30;51.30
15298;DHT22;7750;48.796;9.026;2024-02-26T14:46:46;19.50;51.30
15298;DHT22;7750;48.796;9.026;2024-02-26T14:51:48;19.60;50.70
15298;DHT22;7750;48.796;9.026;2024-02-26T15:17:29;19.00;50.30
15298;DHT22;7750;48.796;9.026;2024-02-26T15:37:57;18.30;50.80
15298;DHT22;7750;48.796;9.026;2024-02-26T15:48:08;18.10;51.60
15298;DHT22;7750;48.796;9.026;2024-02-26T15:53:10;18.00;51.30
15298;DHT22;7750;48.796;9.026;2024-02-26T15:58:11;17.80;51.40
15298;DHT22;7750;48.796;9.026;2024-02-26T16:08:23;17.60;52.00
15298;DHT22;7750;48.796;9.026;2024-02-26T16:13:24;17.50;52.10
15298;DHT22;7750;48.796;9.026;2024-02-26T16:18:25;17.40;52.60
15298;DHT22;7750;48.796;9.026;2024-02-26T16:23:25;17.30;52.30
15298;DHT22;7750;48.796;9.026;2024-02-26T16:28:26;17.20;52.40
15298;DHT22;7750;48.796;9.026;2024-02-26T16:33:27;17.10;52.50
15298;DHT22;7750;48.796;9.026;2024-02-26T16:38:27;17.00;52.60
15298;DHT22;7750;48.796;9.026;2024-02-26T16:43:28;16.90;52.70
15298;DHT22;7750;48.796;9.026;2024-02-26T16:53:39;16.70;53.00
15298;DHT22;7750;48.796;9.026;2024-02-26T16:58:40;16.60;53.00
15298;DHT22;7750;48.796;9.026;2024-02-26T17:03:40;16.60;53.20
15298;DHT22;7750;48.796;9.026;2024-02-26T17:08:41;16.40;53.20
